METAR Data
IDs: Format: Raw Decoded Include TAF

Data at: 2137 UTC 08 Aug 2020

KPRC 082053Z 21012G18KT 10SM CLR 33/01 A3017 RMK AO2 SLP126 T03280006 58013
KPRC 081953Z 21007KT 10SM CLR 32/01 A3019 RMK AO2 SLP134 T03220011
KPRC 081853Z 19015G22KT 10SM CLR 31/03 A3020 RMK AO2 SLP136 T03110028
KPRC 081753Z 22014G21KT 10SM CLR 31/03 A3022 RMK AO2 SLP136 T03110028 10311 20156 58003
KPRC 081653Z VRB04KT 10SM CLR 29/01 A3022 RMK AO2 SLP141 T02940011
KPRC 081553Z 03004KT 10SM CLR 27/02 A3023 RMK AO2 SLP146 T02670017
KPRC 081453Z 00000KT 10SM CLR 23/02 A3023 RMK AO2 SLP146 T02280022 51012
KPRC 081353Z 14003KT 10SM CLR 19/01 A3022 RMK AO2 SLP147 T01890011
KPRC 081253Z 20006KT 10SM CLR 18/M01 A3020 RMK AO2 SLP142 T01781006
KPRC 081153Z AUTO 19006KT 10SM CLR 16/M01 A3019 RMK AO2 SLP137 T01611006 10222 20156 53004
KPRC 081053Z AUTO 17005KT 10SM CLR 17/M01 A3018 RMK AO2 SLP131 T01721011
KPRC 080953Z AUTO 18007KT 10SM CLR 17/M04 A3017 RMK AO2 SLP129 T01721039
KPRC 080853Z AUTO 18007KT 10SM CLR 17/00 A3017 RMK AO2 SLP128 T01670000 58001
KPRC 080753Z AUTO 18008KT 10SM CLR 18/01 A3018 RMK AO2 SLP130 T01780006
KPRC 080653Z AUTO 18007KT 10SM CLR 19/01 A3018 RMK AO2 SLP129 T01940006 403220139
KPRC 080553Z AUTO 21008KT 10SM CLR 22/00 A3018 RMK AO2 SLP126 T02220000 10306 20211 51012
KPRC 080453Z AUTO 20005KT 10SM CLR 22/04 A3017 RMK AO2 SLP127 T02170039
KPRC 080353Z 19005KT 10SM CLR 23/03 A3016 RMK AO2 SLP121 T02330033
KPRC 080253Z 22006KT 10SM CLR 27/02 A3013 RMK AO2 SLP112 T02670022 53004
KPRC 080153Z 21011KT 10SM CLR 28/02 A3013 RMK AO2 SLP115 T02830022
KPRC 080053Z COR 23020G26KT 10SM CLR 30/02 A3012 RMK AO2 SLP118 T03000022
KPRC 072353Z 23014G26KT 10SM CLR 31/02 A3012 RMK AO2 PK WND 23028/2317 SLP116 T03060017 10322 20289 56006
KPRC 072253Z 25014G25KT 10SM CLR 32/03 A3013 RMK AO2 SLP118 T03170028
KPRC 072153Z 20014G29KT 10SM CLR 32/00 A3013 RMK AO2 PK WND 22028/2140 SLP119 T03170000
KPRC 072053Z 21014G31KT 10SM CLR 32/M01 A3014 RMK AO2 PK WND 22026/2049 SLP122 T03171006 58006
KPRC 071953Z 20017G26KT 10SM CLR 31/02 A3015 RMK AO2 PK WND 20026/1952 SLP124 T03110017
KPRC 071853Z 18011G17KT 140V220 10SM CLR 30/02 A3016 RMK AO2 SLP125 T03000017
KPRC 071753Z 18013KT 10SM CLR 29/02 A3017 RMK AO2 SLP128 T02890022 10289 20139 50006
KPRC 071653Z 18010KT 10SM CLR 28/04 A3017 RMK AO2 SLP126 T02780039
KPRC 071553Z 00000KT 10SM CLR 27/M03 A3016 RMK AO2 SLP119 T02671033
KPRC 071453Z 00000KT 10SM CLR 24/M03 A3014 RMK AO2 SLP117 T02441028 53016
KPRC 071353Z 17004KT 10SM CLR 19/M01 A3012 RMK AO2 SLP112 T01941011
KPRC 071253Z 15004KT 10SM CLR 14/M02 A3011 RMK AO2 SLP114 T01441017
KPRC 071153Z AUTO 17008KT 10SM CLR 14/M02 A3009 RMK AO2 SLP106 T01441017 10189 20139 55001
KPRC 071053Z AUTO 19007KT 10SM CLR 14/M03 A3008 RMK AO2 SLP104 T01391033
KPRC 070953Z AUTO 19006KT 10SM CLR 15/M04 A3009 RMK AO2 SLP103 T01501039